createdAt,value
2019-03-09T00:01:47.878Z,95776.76
2019-03-09T00:04:15.209Z,95768.94
2019-03-09T00:06:42.504Z,95772.30
2019-03-09T00:09:09.792Z,95771.96
2019-03-09T00:11:37.105Z,95765.16
2019-03-09T00:14:04.869Z,95761.55
2019-03-09T00:16:32.273Z,95767.17
2019-03-09T00:18:59.590Z,95767.83
2019-03-09T00:21:26.889Z,95764.09
2019-03-09T00:24:25.677Z,95764.41
2019-03-09T00:26:57.524Z,95760.41
2019-03-09T00:29:50.241Z,95766.56
2019-03-09T00:32:19.711Z,95771.16
2019-03-09T00:34:46.989Z,95773.28
2019-03-09T00:37:14.261Z,95770.49
2019-03-09T00:39:41.589Z,95766.33
2019-03-09T00:42:08.951Z,95769.08
2019-03-09T00:44:36.258Z,95769.98
2019-03-09T00:47:03.553Z,95762.83
2019-03-09T00:49:30.911Z,95761.42
2019-03-09T00:51:58.214Z,95767.48
2019-03-09T00:54:25.493Z,95768.41
2019-03-09T00:56:52.850Z,95761.56
2019-03-09T00:59:20.120Z,95762.83
2019-03-09T01:01:47.411Z,95759.34
2019-03-09T01:04:14.709Z,95760.80
2019-03-09T01:06:42.050Z,95760.20
2019-03-09T01:09:09.529Z,95765.20
2019-03-09T01:11:36.815Z,95759.92
2019-03-09T01:14:04.390Z,95760.31
2019-03-09T01:16:31.711Z,95759.98
2019-03-09T01:18:59.072Z,95763.23
2019-03-09T01:21:26.770Z,95759.47
2019-03-09T01:23:54.071Z,95763.48
2019-03-09T01:26:21.503Z,95752.48
2019-03-09T01:28:48.813Z,95744.70
2019-03-09T01:31:16.530Z,95740.42
2019-03-09T01:33:43.830Z,95733.12
2019-03-09T01:36:11.096Z,95736.25
2019-03-09T01:38:38.412Z,95744.41
2019-03-09T01:41:05.710Z,95739.14
2019-03-09T01:43:33.012Z,95739.27
2019-03-09T01:46:00.381Z,95737.33
2019-03-09T01:48:27.671Z,95733.33
2019-03-09T01:50:54.977Z,95732.86
2019-03-09T01:53:22.272Z,95729.56
2019-03-09T01:55:49.589Z,95722.42
2019-03-09T01:58:16.890Z,95721.87
2019-03-09T02:00:44.191Z,95723.33
2019-03-09T02:03:11.529Z,95720.10
2019-03-09T02:05:38.849Z,95710.69
2019-03-09T02:08:06.187Z,95709.59
2019-03-09T02:10:33.526Z,95708.83
2019-03-09T02:13:00.875Z,95706.58
2019-03-09T02:15:28.125Z,95705.33
2019-03-09T02:17:55.430Z,95699.63
2019-03-09T02:20:22.710Z,95703.66
2019-03-09T02:22:50.012Z,95704.84
2019-03-09T02:25:17.312Z,95695.11
2019-03-09T02:27:44.633Z,95693.11
2019-03-09T02:30:12.594Z,95682.58
2019-03-09T02:32:39.893Z,95679.33
2019-03-09T02:35:08.454Z,95678.55
2019-03-09T02:37:35.770Z,95672.68
2019-03-09T02:40:06.975Z,95670.20
2019-03-09T02:42:34.292Z,95667.64
2019-03-09T02:45:01.637Z,95664.72
2019-03-09T02:47:29.009Z,95668.64
2019-03-09T02:49:56.338Z,95661.63
2019-03-09T02:52:23.660Z,95660.57
2019-03-09T02:54:50.951Z,95661.21
2019-03-09T02:57:18.253Z,95654.83
2019-03-09T02:59:45.551Z,95646.69
2019-03-09T03:02:25.250Z,95647.72
2019-03-09T03:04:52.530Z,95656.25
2019-03-09T03:07:19.826Z,95659.65
2019-03-09T03:09:47.170Z,95660.65
2019-03-09T03:12:14.469Z,95657.31
2019-03-09T03:14:41.773Z,95659.27
2019-03-09T03:17:09.092Z,95659.70
2019-03-09T03:19:36.390Z,95653.88
2019-03-09T03:22:03.802Z,95655.23
2019-03-09T03:24:31.154Z,95650.56
2019-03-09T03:26:58.489Z,95659.60
2019-03-09T03:29:25.790Z,95649.19
2019-03-09T03:31:53.576Z,95646.88
2019-03-09T03:34:20.833Z,95645.61
2019-03-09T03:36:48.200Z,95636.13
2019-03-09T03:39:15.552Z,95635.28
2019-03-09T03:41:42.988Z,95628.27
2019-03-09T03:44:10.417Z,95634.53
2019-03-09T03:46:40.088Z,95616.53
2019-03-09T03:49:07.373Z,95607.52
2019-03-09T03:51:34.666Z,95607.21
2019-03-09T03:54:01.949Z,95604.23
2019-03-09T03:56:29.275Z,95607.28
2019-03-09T03:58:56.569Z,95599.32
2019-03-09T04:01:24.199Z,95597.48
2019-03-09T04:03:51.492Z,95601.10
2019-03-09T04:06:18.772Z,95601.51
2019-03-09T04:08:46.079Z,95599.45
2019-03-09T04:11:13.398Z,95596.20
2019-03-09T04:13:40.682Z,95595.05
2019-03-09T04:16:07.971Z,95597.61
2019-03-09T04:18:35.273Z,95595.92
2019-03-09T04:21:02.580Z,95602.48
2019-03-09T04:23:29.873Z,95605.83
2019-03-09T04:25:57.157Z,95598.73
2019-03-09T04:28:24.467Z,95603.23
2019-03-09T04:30:51.725Z,95599.44
2019-03-09T04:33:19.042Z,95603.25
2019-03-09T04:35:46.304Z,95606.45
2019-03-09T04:38:13.861Z,95614.19
2019-03-09T04:40:41.239Z,95618.07
2019-03-09T04:43:08.484Z,95608.55
2019-03-09T04:45:35.741Z,95616.02
2019-03-09T04:48:03.026Z,95611.51
2019-03-09T04:50:30.291Z,95606.91
2019-03-09T04:52:57.558Z,95609.52
2019-03-09T04:55:24.850Z,95602.11
2019-03-09T04:57:52.111Z,95598.68
2019-03-09T05:00:19.370Z,95586.48
2019-03-09T05:02:46.663Z,95578.44
2019-03-09T05:05:13.932Z,95578.22
2019-03-09T05:08:02.591Z,95575.93
2019-03-09T05:10:45.645Z,95585.80
2019-03-09T05:13:16.872Z,95586.28
2019-03-09T05:15:44.124Z,95575.81
2019-03-09T05:18:11.381Z,95574.75
2019-03-09T05:20:38.825Z,95580.20
2019-03-09T05:23:06.378Z,95573.69
2019-03-09T05:25:33.936Z,95580.69
2019-03-09T05:28:01.530Z,95564.92
2019-03-09T05:30:39.412Z,95567.97
2019-03-09T05:33:06.694Z,95568.31
2019-03-09T05:35:33.965Z,95572.46
2019-03-09T05:38:01.251Z,95572.77
2019-03-09T05:40:28.540Z,95581.84
2019-03-09T05:42:55.841Z,95575.97
2019-03-09T05:45:23.337Z,95571.78
2019-03-09T05:47:50.795Z,95577.00
2019-03-09T05:50:18.420Z,95585.45
2019-03-09T05:52:50.000Z,95575.84
2019-03-09T05:55:19.183Z,95572.77
2019-03-09T05:57:46.608Z,95576.01
2019-03-09T06:00:15.738Z,95580.31
2019-03-09T06:02:43.004Z,95584.53
2019-03-09T06:05:39.535Z,95585.16
2019-03-09T06:08:07.660Z,95595.55
2019-03-09T06:10:34.923Z,95602.56
2019-03-09T06:13:02.226Z,95603.27
2019-03-09T06:15:29.532Z,95600.31
2019-03-09T06:17:56.820Z,95583.30
2019-03-09T06:20:24.159Z,95586.83
2019-03-09T06:22:51.442Z,95588.95
2019-03-09T06:25:18.725Z,95591.76
2019-03-09T06:27:46.020Z,95599.67
2019-03-09T06:30:13.718Z,95587.96
2019-03-09T06:33:34.078Z,95586.97
2019-03-09T06:36:37.677Z,95600.38
2019-03-09T06:39:10.778Z,95595.55
2019-03-09T06:41:55.971Z,95595.11
2019-03-09T06:44:23.261Z,95595.08
2019-03-09T06:46:50.509Z,95605.77
2019-03-09T06:49:17.810Z,95630.11
2019-03-09T06:51:45.218Z,95627.17
2019-03-09T06:54:12.531Z,95618.42
2019-03-09T06:56:42.877Z,95623.30
2019-03-09T06:59:10.407Z,95633.67
2019-03-09T07:01:37.731Z,95632.08
2019-03-09T07:04:05.236Z,95637.90
2019-03-09T07:06:32.844Z,95624.61
2019-03-09T07:09:00.422Z,95646.09
2019-03-09T07:11:28.073Z,95651.84
2019-03-09T07:13:55.640Z,95653.91
2019-03-09T07:16:23.143Z,95651.39
2019-03-09T07:18:50.385Z,95646.03
2019-03-09T07:21:17.664Z,95651.91
2019-03-09T07:23:44.944Z,95648.72
2019-03-09T07:26:12.192Z,95644.29
2019-03-09T07:28:39.476Z,95641.85
2019-03-09T07:31:06.751Z,95635.98
2019-03-09T07:33:34.068Z,95631.55
2019-03-09T07:36:04.318Z,95637.95
2019-03-09T07:38:31.836Z,95643.98
2019-03-09T07:40:59.139Z,95641.60
2019-03-09T07:43:26.441Z,95650.95
2019-03-09T07:45:53.731Z,95660.92
2019-03-09T07:48:20.971Z,95661.31
2019-03-09T07:50:48.251Z,95651.17
2019-03-09T07:53:15.541Z,95650.28
2019-03-09T07:55:42.841Z,95645.52
2019-03-09T07:58:10.141Z,95634.73
2019-03-09T08:00:37.430Z,95629.05
2019-03-09T08:03:04.822Z,95634.58
2019-03-09T08:05:32.091Z,95640.86
2019-03-09T08:07:59.387Z,95635.30
2019-03-09T08:10:27.133Z,95645.14
2019-03-09T08:12:54.437Z,95629.25
2019-03-09T08:15:21.785Z,95626.36
2019-03-09T08:17:49.442Z,95631.78
2019-03-09T08:20:16.729Z,95628.80
2019-03-09T08:22:44.064Z,95638.11
2019-03-09T08:25:12.331Z,95623.23
2019-03-09T08:27:39.648Z,95612.88
2019-03-09T08:30:10.516Z,95615.78
2019-03-09T08:32:37.820Z,95609.05
2019-03-09T08:35:05.213Z,95602.42
2019-03-09T08:37:32.531Z,95611.00
2019-03-09T08:39:59.886Z,95612.48
2019-03-09T08:42:27.185Z,95623.53
2019-03-09T08:44:54.423Z,95625.87
2019-03-09T08:47:21.714Z,95628.33
2019-03-09T08:49:49.039Z,95633.73
2019-03-09T08:52:16.373Z,95639.28
2019-03-09T08:54:43.682Z,95637.17
2019-03-09T08:57:11.039Z,95638.97
2019-03-09T08:59:38.355Z,95641.53
2019-03-09T09:02:05.699Z,95636.61
2019-03-09T09:04:34.616Z,95628.14
2019-03-09T09:07:02.281Z,95631.78
2019-03-09T09:09:29.582Z,95629.73
2019-03-09T09:11:56.925Z,95634.67
2019-03-09T09:14:24.309Z,95627.39
2019-03-09T09:16:51.946Z,95625.36
2019-03-09T09:19:19.249Z,95631.14
2019-03-09T09:21:46.520Z,95623.31
2019-03-09T09:24:13.827Z,95611.20
2019-03-09T09:26:41.205Z,95611.00
2019-03-09T09:29:08.469Z,95621.45
2019-03-09T09:31:35.782Z,95608.83
2019-03-09T09:34:03.107Z,95597.88
2019-03-09T09:36:30.410Z,95603.27
2019-03-09T09:38:57.741Z,95607.02
2019-03-09T09:41:25.043Z,95603.62
2019-03-09T09:43:52.349Z,95603.34
2019-03-09T09:46:19.713Z,95596.28
2019-03-09T09:48:46.991Z,95601.78
2019-03-09T09:51:14.345Z,95588.48
2019-03-09T09:53:41.683Z,95601.19
2019-03-09T09:56:09.042Z,95606.64
2019-03-09T09:58:36.397Z,95599.62
2019-03-09T10:01:03.757Z,95598.74
2019-03-09T10:03:31.078Z,95596.02
2019-03-09T10:05:58.356Z,95589.45
2019-03-09T10:08:25.672Z,95590.47
2019-03-09T10:10:53.024Z,95595.09
2019-03-09T10:13:20.357Z,95599.80
2019-03-09T10:15:47.752Z,95594.34
2019-03-09T10:18:15.042Z,95587.94
2019-03-09T10:20:42.401Z,95575.34
2019-03-09T10:23:09.752Z,95577.12
2019-03-09T10:25:37.081Z,95575.02
2019-03-09T10:28:04.522Z,95584.36
2019-03-09T10:30:33.897Z,95584.27
2019-03-09T10:33:01.222Z,95578.73
2019-03-09T10:35:28.584Z,95568.11
2019-03-09T10:37:56.003Z,95558.80
2019-03-09T10:40:23.361Z,95562.08
2019-03-09T10:42:50.705Z,95554.11
2019-03-09T10:45:18.142Z,95553.62
2019-03-09T10:47:45.495Z,95545.77
2019-03-09T10:50:13.260Z,95540.17
2019-03-09T10:52:40.634Z,95526.19
2019-03-09T10:55:10.553Z,95522.55
2019-03-09T10:57:37.907Z,95517.09
2019-03-09T11:00:09.921Z,95510.33
2019-03-09T11:02:37.749Z,95508.78
2019-03-09T11:05:05.423Z,95504.72
2019-03-09T11:07:32.739Z,95496.98
2019-03-09T11:10:00.335Z,95488.14
2019-03-09T11:12:27.644Z,95476.66
2019-03-09T11:14:54.963Z,95478.89
2019-03-09T11:17:22.439Z,95470.40
2019-03-09T11:19:50.441Z,95467.37
2019-03-09T11:22:17.733Z,95456.56
2019-03-09T11:24:45.054Z,95450.19
2019-03-09T11:27:12.382Z,95429.14
2019-03-09T11:29:40.088Z,95431.56
2019-03-09T11:32:07.417Z,95420.81
2019-03-09T11:34:34.754Z,95419.16
2019-03-09T11:37:02.102Z,95413.10
2019-03-09T11:39:29.432Z,95401.98
2019-03-09T11:41:56.804Z,95396.67
2019-03-09T11:44:26.326Z,95394.60
2019-03-09T11:46:53.665Z,95387.44
2019-03-09T11:49:21.095Z,95366.96
2019-03-09T11:51:48.439Z,95354.27
2019-03-09T11:54:15.720Z,95362.08
2019-03-09T11:56:43.101Z,95350.88
2019-03-09T11:59:10.890Z,95349.36
2019-03-09T12:01:38.262Z,95346.58
2019-03-09T12:04:05.574Z,95345.99
2019-03-09T12:06:32.890Z,95338.48
2019-03-09T12:09:00.213Z,95334.67
2019-03-09T12:11:28.030Z,95333.84
2019-03-09T12:13:55.421Z,95320.81
2019-03-09T12:16:22.791Z,95320.59
2019-03-09T12:18:50.244Z,95316.98
2019-03-09T12:21:18.653Z,95320.10
2019-03-09T12:23:46.023Z,95304.58
2019-03-09T12:26:13.386Z,95304.97
2019-03-09T12:28:40.871Z,95297.19
2019-03-09T12:31:08.184Z,95297.07
2019-03-09T12:33:35.497Z,95298.26
2019-03-09T12:36:02.802Z,95286.92
2019-03-09T12:38:30.283Z,95278.28
2019-03-09T12:40:57.606Z,95277.77
2019-03-09T12:43:25.016Z,95266.08
2019-03-09T12:45:52.463Z,95268.09
2019-03-09T12:48:19.938Z,95264.97
2019-03-09T12:50:47.243Z,95260.98
2019-03-09T12:53:14.746Z,95262.84
2019-03-09T12:55:42.147Z,95261.91
2019-03-09T12:58:09.588Z,95253.45
2019-03-09T13:00:37.147Z,95242.59
2019-03-09T13:03:04.567Z,95231.20
2019-03-09T13:05:31.944Z,95231.33
2019-03-09T13:07:59.382Z,95218.77
2019-03-09T13:10:26.691Z,95219.92
2019-03-09T13:12:54.206Z,95209.53
2019-03-09T13:15:21.728Z,95215.66
2019-03-09T13:17:49.223Z,95205.67
2019-03-09T13:20:16.764Z,95196.47
2019-03-09T13:22:44.403Z,95190.98
2019-03-09T13:25:12.525Z,95181.88
2019-03-09T13:27:40.025Z,95178.30
2019-03-09T13:30:09.877Z,95169.37
2019-03-09T13:32:37.409Z,95166.27
2019-03-09T13:35:05.093Z,95159.75
2019-03-09T13:37:32.473Z,95151.48
2019-03-09T13:40:00.058Z,95140.41
2019-03-09T13:42:27.623Z,95129.03
2019-03-09T13:44:55.082Z,95135.53
2019-03-09T13:47:22.526Z,95132.05
2019-03-09T13:49:50.041Z,95122.81
2019-03-09T13:52:17.564Z,95111.96
2019-03-09T13:54:45.000Z,95119.17
2019-03-09T13:57:12.534Z,95124.69
2019-03-09T13:59:40.163Z,95119.08
2019-03-09T14:02:08.159Z,95114.34
2019-03-09T14:04:35.733Z,95115.03
2019-03-09T14:07:03.345Z,95114.94
2019-03-09T14:09:30.929Z,95141.84
2019-03-09T14:11:58.448Z,95132.44
2019-03-09T14:14:25.958Z,95131.50
2019-03-09T14:16:53.661Z,95120.11
2019-03-09T14:19:21.223Z,95117.42
2019-03-09T14:21:49.010Z,95124.25
2019-03-09T14:24:16.625Z,95120.66
2019-03-09T14:26:44.276Z,95113.39
2019-03-09T14:29:11.937Z,95108.64
2019-03-09T14:31:39.468Z,95107.06
2019-03-09T14:34:08.662Z,95105.97
2019-03-09T14:36:36.277Z,95112.16
2019-03-09T14:39:05.810Z,95103.98
2019-03-09T14:41:33.642Z,95104.62
2019-03-09T14:44:01.182Z,95119.91
2019-03-09T14:46:29.161Z,95129.84
2019-03-09T14:48:56.900Z,95123.75
2019-03-09T14:51:24.396Z,95119.83
2019-03-09T14:53:52.423Z,95122.22
2019-03-09T14:56:20.050Z,95129.37
2019-03-09T14:58:47.681Z,95128.64
2019-03-09T15:01:16.308Z,95124.56
2019-03-09T15:03:43.861Z,95124.86
2019-03-09T15:06:11.459Z,95112.39
2019-03-09T15:08:39.977Z,95110.00
2019-03-09T15:11:07.765Z,95111.59
2019-03-09T15:13:37.446Z,95125.02
2019-03-09T15:16:05.166Z,95140.97
2019-03-09T15:18:32.802Z,95156.73
2019-03-09T15:21:00.963Z,95154.25
2019-03-09T15:23:28.985Z,95160.98
2019-03-09T15:25:56.687Z,95167.42
2019-03-09T15:28:25.469Z,95179.98
2019-03-09T15:30:53.202Z,95178.33
2019-03-09T15:33:21.889Z,95182.13
2019-03-09T15:35:49.787Z,95192.89
2019-03-09T15:38:19.238Z,95189.25
2019-03-09T15:40:47.400Z,95202.11
2019-03-09T15:43:16.646Z,95183.11
2019-03-09T15:45:44.456Z,95179.41
2019-03-09T15:48:12.415Z,95188.91
2019-03-09T15:50:40.139Z,95192.30
2019-03-09T15:53:07.918Z,95185.45
2019-03-09T15:55:36.111Z,95192.83
2019-03-09T15:58:04.388Z,95184.66
2019-03-09T16:00:33.585Z,95184.02
2019-03-09T16:03:01.257Z,95190.25
2019-03-09T16:05:28.967Z,95188.70
2019-03-09T16:07:56.747Z,95187.41
2019-03-09T16:10:24.394Z,95184.28
2019-03-09T16:12:52.485Z,95205.17
2019-03-09T16:15:21.535Z,95205.03
2019-03-09T16:17:49.337Z,95205.40
2019-03-09T16:20:17.309Z,95206.71
2019-03-09T16:22:45.036Z,95187.78
2019-03-09T16:25:13.096Z,95179.31
2019-03-09T16:27:40.791Z,95183.25
2019-03-09T16:30:11.074Z,95180.52
2019-03-09T16:32:42.617Z,95177.77
2019-03-09T16:35:10.636Z,95190.81
2019-03-09T16:37:40.572Z,95187.97
2019-03-09T16:40:09.281Z,95195.92
2019-03-09T16:42:37.056Z,95215.23
2019-03-09T16:45:08.362Z,95236.98
2019-03-09T16:47:36.129Z,95267.43
2019-03-09T16:50:05.355Z,95301.28
2019-03-09T16:52:35.742Z,95314.23
2019-03-09T16:55:03.996Z,95334.03
2019-03-09T16:57:31.924Z,95336.03
2019-03-09T17:00:00.043Z,95351.69
2019-03-09T17:02:28.394Z,95352.81
2019-03-09T17:04:56.333Z,95378.42
2019-03-09T17:07:24.116Z,95394.95
2019-03-09T17:09:51.781Z,95403.19
2019-03-09T17:12:19.878Z,95433.88
2019-03-09T17:14:47.688Z,95429.50
2019-03-09T17:17:15.423Z,95446.69
2019-03-09T17:19:43.600Z,95453.38
2019-03-09T17:22:11.263Z,95465.47
2019-03-09T17:24:40.259Z,95464.09
2019-03-09T17:27:08.124Z,95482.38
2019-03-09T17:29:36.162Z,95498.99
2019-03-09T17:32:04.351Z,95488.63
2019-03-09T17:34:32.256Z,95498.24
2019-03-09T17:36:59.898Z,95497.14
2019-03-09T17:39:28.142Z,95500.11
2019-03-09T17:41:56.301Z,95501.86
2019-03-09T17:44:24.391Z,95514.33
2019-03-09T17:46:52.240Z,95511.81
2019-03-09T17:49:20.067Z,95498.63
2019-03-09T17:51:47.973Z,95522.91
2019-03-09T17:54:15.808Z,95505.08
2019-03-09T17:56:44.344Z,95504.80
2019-03-09T17:59:12.068Z,95512.67
2019-03-09T18:01:39.923Z,95507.11
2019-03-09T18:04:08.704Z,95506.34
2019-03-09T18:06:36.415Z,95517.44
2019-03-09T18:09:06.073Z,95531.23
2019-03-09T18:11:33.890Z,95514.13
2019-03-09T18:14:06.899Z,95512.61
2019-03-09T18:16:31.266Z,95507.86
2019-03-09T18:18:58.967Z,95518.91
2019-03-09T18:21:27.092Z,95518.94
2019-03-09T18:23:54.914Z,95514.79
2019-03-09T18:26:22.744Z,95520.06
2019-03-09T18:28:50.564Z,95516.75
2019-03-09T18:31:18.303Z,95523.91
2019-03-09T18:33:46.101Z,95517.64
2019-03-09T18:36:13.908Z,95536.25
2019-03-09T18:38:41.593Z,95524.25
2019-03-09T18:41:10.604Z,95534.97
2019-03-09T18:43:39.687Z,95528.34
2019-03-09T18:46:07.553Z,95540.94
2019-03-09T18:48:38.044Z,95525.00
2019-03-09T18:51:05.882Z,95546.94
2019-03-09T18:53:33.667Z,95558.44
2019-03-09T18:56:01.277Z,95519.30
2019-03-09T18:58:31.351Z,95544.44
2019-03-09T19:00:59.746Z,95553.70
2019-03-09T19:03:27.524Z,95563.33
2019-03-09T19:05:56.710Z,95563.00
2019-03-09T19:08:25.301Z,95542.22
2019-03-09T19:10:53.986Z,95541.14
2019-03-09T19:13:24.454Z,95529.10
2019-03-09T19:15:52.098Z,95524.63
2019-03-09T19:18:20.007Z,95548.58
2019-03-09T19:20:47.772Z,95543.56
2019-03-09T19:23:15.490Z,95527.78
2019-03-09T19:25:43.565Z,95544.63
2019-03-09T19:28:11.294Z,95535.97
2019-03-09T19:30:41.033Z,95540.77
2019-03-09T19:33:08.689Z,95534.78
2019-03-09T19:35:36.443Z,95540.70
2019-03-09T19:38:04.372Z,95540.50
2019-03-09T19:40:32.338Z,95543.66
2019-03-09T19:43:00.599Z,95541.65
2019-03-09T19:45:28.215Z,95569.67
2019-03-09T19:47:55.881Z,95540.95
2019-03-09T19:50:24.917Z,95538.92
2019-03-09T19:52:52.824Z,95520.92
2019-03-09T19:55:20.595Z,95516.22
2019-03-09T19:57:48.277Z,95546.88
2019-03-09T20:00:16.216Z,95537.28
2019-03-09T20:02:43.917Z,95549.86
2019-03-09T20:05:11.868Z,95531.42
2019-03-09T20:07:40.764Z,95537.07
2019-03-09T20:10:10.343Z,95543.22
2019-03-09T20:12:43.317Z,95557.47
2019-03-09T20:15:12.145Z,95535.25
2019-03-09T20:17:39.848Z,95550.98
2019-03-09T20:20:08.837Z,95545.89
2019-03-09T20:22:37.196Z,95533.68
2019-03-09T20:25:05.098Z,95537.07
2019-03-09T20:27:32.922Z,95557.55
2019-03-09T20:30:00.631Z,95558.27
2019-03-09T20:32:28.635Z,95559.21
2019-03-09T20:34:58.031Z,95550.40
2019-03-09T20:37:25.723Z,95547.84
2019-03-09T20:39:53.537Z,95563.25
2019-03-09T20:42:21.489Z,95529.95
2019-03-09T20:44:49.601Z,95522.05
2019-03-09T20:47:17.614Z,95534.98
2019-03-09T20:49:45.454Z,95533.22
2019-03-09T20:52:13.277Z,95534.91
2019-03-09T20:54:40.932Z,95556.50
2019-03-09T20:57:08.711Z,95552.16
2019-03-09T20:59:37.730Z,95539.11
2019-03-09T21:02:05.717Z,95562.95
2019-03-09T21:04:33.484Z,95550.28
2019-03-09T21:07:03.756Z,95547.94
2019-03-09T21:09:31.435Z,95552.33
2019-03-09T21:11:59.324Z,95550.64
2019-03-09T21:14:27.141Z,95554.34
2019-03-09T21:16:54.817Z,95554.56
2019-03-09T21:19:22.841Z,95559.11
2019-03-09T21:21:50.951Z,95558.30
2019-03-09T21:24:19.739Z,95569.67
2019-03-09T21:26:47.859Z,95551.52
2019-03-09T21:29:15.640Z,95540.05
2019-03-09T21:31:44.478Z,95548.97
2019-03-09T21:34:12.241Z,95560.30
2019-03-09T21:36:39.897Z,95558.74
2019-03-09T21:39:07.941Z,95559.78
2019-03-09T21:41:35.561Z,95546.91
2019-03-09T21:44:03.240Z,95537.14
2019-03-09T21:46:31.356Z,95551.63
2019-03-09T21:49:02.427Z,95556.91
2019-03-09T21:51:30.071Z,95548.44
2019-03-09T21:53:57.780Z,95551.52
2019-03-09T21:56:25.438Z,95557.27
2019-03-09T21:58:53.102Z,95547.55
2019-03-09T22:01:20.662Z,95549.09
2019-03-09T22:03:48.275Z,95548.22
2019-03-09T22:06:15.758Z,95530.36
2019-03-09T22:08:43.303Z,95532.35
2019-03-09T22:11:10.908Z,95543.67
2019-03-09T22:13:38.409Z,95539.98
2019-03-09T22:16:05.970Z,95533.08
2019-03-09T22:18:33.338Z,95538.05
2019-03-09T22:21:00.882Z,95544.03
2019-03-09T22:23:28.217Z,95531.97
2019-03-09T22:25:55.563Z,95545.71
2019-03-09T22:28:22.971Z,95544.11
2019-03-09T22:30:50.375Z,95536.91
2019-03-09T22:33:17.843Z,95537.39
2019-03-09T22:35:45.284Z,95535.91
2019-03-09T22:38:14.914Z,95534.63
2019-03-09T22:40:42.359Z,95531.48
2019-03-09T22:43:11.981Z,95520.89
2019-03-09T22:45:39.353Z,95532.97
2019-03-09T22:48:06.732Z,95532.47
2019-03-09T22:50:34.069Z,95528.76
2019-03-09T22:53:01.457Z,95530.00
2019-03-09T22:55:28.794Z,95518.09
2019-03-09T22:57:56.160Z,95521.60
2019-03-09T23:00:23.838Z,95531.23
2019-03-09T23:02:51.219Z,95532.28
2019-03-09T23:05:18.546Z,95527.84
2019-03-09T23:07:45.881Z,95517.98
2019-03-09T23:10:14.506Z,95524.58
2019-03-09T23:12:41.859Z,95514.06
2019-03-09T23:15:10.911Z,95504.66
2019-03-09T23:17:38.242Z,95516.82
2019-03-09T23:20:06.460Z,95506.88
2019-03-09T23:22:33.779Z,95504.50
2019-03-09T23:25:01.224Z,95514.89
2019-03-09T23:27:28.603Z,95517.32
2019-03-09T23:29:56.139Z,95514.72
2019-03-09T23:32:23.491Z,95506.34
2019-03-09T23:34:50.855Z,95511.92
2019-03-09T23:37:18.198Z,95507.53
2019-03-09T23:39:45.563Z,95528.44
2019-03-09T23:42:12.905Z,95528.33
2019-03-09T23:44:40.212Z,95517.03
2019-03-09T23:47:07.586Z,95516.02
2019-03-09T23:49:34.881Z,95520.70
2019-03-09T23:52:02.211Z,95513.95
2019-03-09T23:54:29.521Z,95519.77
2019-03-09T23:56:56.853Z,95512.61
2019-03-09T23:59:24.241Z,95510.88
